sensor_id;sensor_type;location;lat;lon;timestamp;pressure;altitude;pressure_sealevel;temperature;humidity
62926;BME280;55732;52.248;-0.844;2023-07-22T00:01:05;100461.89;;;15.40;66.33
62926;BME280;55732;52.248;-0.844;2023-07-22T00:03:31;100461.23;;;15.37;66.32
62926;BME280;55732;52.248;-0.844;2023-07-22T00:06:06;100460.23;;;15.35;66.47
62926;BME280;55732;52.248;-0.844;2023-07-22T00:08:33;100461.20;;;15.33;66.54
62926;BME280;55732;52.248;-0.844;2023-07-22T00:10:59;100453.34;;;15.27;66.63
62926;BME280;55732;52.248;-0.844;2023-07-22T00:13:24;100465.65;;;15.32;66.50
62926;BME280;55732;52.248;-0.844;2023-07-22T00:15:53;100461.76;;;15.31;66.54
62926;BME280;55732;52.248;-0.844;2023-07-22T00:18:18;100461.43;;;15.29;66.72
62926;BME280;55732;52.248;-0.844;2023-07-22T00:20:44;100461.62;;;15.29;66.97
62926;BME280;55732;52.248;-0.844;2023-07-22T00:23:09;100459.30;;;15.30;66.99
62926;BME280;55732;52.248;-0.844;2023-07-22T00:25:36;100459.48;;;15.30;67.17
62926;BME280;55732;52.248;-0.844;2023-07-22T00:28:01;100460.03;;;15.29;67.23
62926;BME280;55732;52.248;-0.844;2023-07-22T00:30:26;100456.84;;;15.28;67.12
62926;BME280;55732;52.248;-0.844;2023-07-22T00:32:53;100455.27;;;15.28;67.11
62926;BME280;55732;52.248;-0.844;2023-07-22T00:35:19;100446.24;;;15.27;67.14
62926;BME280;55732;52.248;-0.844;2023-07-22T00:37:44;100439.91;;;15.24;67.16
62926;BME280;55732;52.248;-0.844;2023-07-22T00:40:10;100439.77;;;15.23;67.40
62926;BME280;55732;52.248;-0.844;2023-07-22T00:42:39;100440.11;;;15.23;67.48
62926;BME280;55732;52.248;-0.844;2023-07-22T00:45:06;100437.81;;;15.23;67.78
62926;BME280;55732;52.248;-0.844;2023-07-22T00:47:33;100434.48;;;15.22;67.75
62926;BME280;55732;52.248;-0.844;2023-07-22T00:50:02;100430.98;;;15.20;67.92
62926;BME280;55732;52.248;-0.844;2023-07-22T00:52:27;100430.45;;;15.19;68.09
62926;BME280;55732;52.248;-0.844;2023-07-22T00:54:53;100428.86;;;15.19;68.15
62926;BME280;55732;52.248;-0.844;2023-07-22T00:57:18;100425.89;;;15.17;68.07
62926;BME280;55732;52.248;-0.844;2023-07-22T00:59:44;100423.61;;;15.15;68.27
62926;BME280;55732;52.248;-0.844;2023-07-22T01:02:10;100417.97;;;15.13;68.44
62926;BME280;55732;52.248;-0.844;2023-07-22T01:04:36;100412.90;;;15.10;68.46
62926;BME280;55732;52.248;-0.844;2023-07-22T01:07:04;100408.70;;;15.09;68.76
62926;BME280;55732;52.248;-0.844;2023-07-22T01:09:55;100407.14;;;15.06;68.88
62926;BME280;55732;52.248;-0.844;2023-07-22T01:12:21;100405.77;;;15.05;69.12
62926;BME280;55732;52.248;-0.844;2023-07-22T01:14:47;100404.39;;;15.03;69.18
62926;BME280;55732;52.248;-0.844;2023-07-22T01:17:12;100401.02;;;15.02;69.25
62926;BME280;55732;52.248;-0.844;2023-07-22T01:19:38;100399.26;;;15.02;69.39
62926;BME280;55732;52.248;-0.844;2023-07-22T01:22:05;100396.80;;;15.01;69.47
62926;BME280;55732;52.248;-0.844;2023-07-22T01:24:33;100393.51;;;14.98;69.60
62926;BME280;55732;52.248;-0.844;2023-07-22T01:26:58;100388.79;;;14.95;69.75
62926;BME280;55732;52.248;-0.844;2023-07-22T01:29:24;100390.77;;;14.93;69.87
62926;BME280;55732;52.248;-0.844;2023-07-22T01:31:51;100386.56;;;14.91;70.06
62926;BME280;55732;52.248;-0.844;2023-07-22T01:34:17;100382.87;;;14.89;70.28
62926;BME280;55732;52.248;-0.844;2023-07-22T01:36:44;100377.27;;;14.87;70.28
62926;BME280;55732;52.248;-0.844;2023-07-22T01:39:10;100378.03;;;14.85;70.52
62926;BME280;55732;52.248;-0.844;2023-07-22T01:41:37;100376.64;;;14.83;70.76
62926;BME280;55732;52.248;-0.844;2023-07-22T01:44:02;100377.91;;;14.82;70.79
62926;BME280;55732;52.248;-0.844;2023-07-22T01:46:28;100377.23;;;14.80;70.93
62926;BME280;55732;52.248;-0.844;2023-07-22T01:48:53;100376.71;;;14.79;71.03
62926;BME280;55732;52.248;-0.844;2023-07-22T01:51:20;100373.89;;;14.79;71.13
62926;BME280;55732;52.248;-0.844;2023-07-22T01:53:45;100375.69;;;14.77;71.27
62926;BME280;55732;52.248;-0.844;2023-07-22T01:56:10;100374.50;;;14.75;71.20
62926;BME280;55732;52.248;-0.844;2023-07-22T01:58:36;100371.73;;;14.73;71.49
62926;BME280;55732;52.248;-0.844;2023-07-22T02:01:01;100367.87;;;14.71;71.44
62926;BME280;55732;52.248;-0.844;2023-07-22T02:03:26;100371.08;;;14.70;71.65
62926;BME280;55732;52.248;-0.844;2023-07-22T02:05:52;100363.86;;;14.68;71.83
62926;BME280;55732;52.248;-0.844;2023-07-22T02:08:18;100359.42;;;14.67;71.91
62926;BME280;55732;52.248;-0.844;2023-07-22T02:10:43;100354.48;;;14.66;72.09
62926;BME280;55732;52.248;-0.844;2023-07-22T02:13:08;100354.85;;;14.66;72.18
62926;BME280;55732;52.248;-0.844;2023-07-22T02:15:35;100350.25;;;14.66;72.30
62926;BME280;55732;52.248;-0.844;2023-07-22T02:18:00;100347.40;;;14.67;72.41
62926;BME280;55732;52.248;-0.844;2023-07-22T02:20:26;100344.73;;;14.66;72.47
62926;BME280;55732;52.248;-0.844;2023-07-22T02:22:54;100344.73;;;14.67;72.53
62926;BME280;55732;52.248;-0.844;2023-07-22T02:25:20;100338.36;;;14.66;72.45
62926;BME280;55732;52.248;-0.844;2023-07-22T02:27:45;100333.41;;;14.66;72.45
62926;BME280;55732;52.248;-0.844;2023-07-22T02:30:11;100338.55;;;14.66;72.61
62926;BME280;55732;52.248;-0.844;2023-07-22T02:32:40;100339.62;;;14.65;72.76
62926;BME280;55732;52.248;-0.844;2023-07-22T02:35:07;100335.55;;;14.65;72.84
62926;BME280;55732;52.248;-0.844;2023-07-22T02:37:34;100332.95;;;14.63;72.96
62926;BME280;55732;52.248;-0.844;2023-07-22T02:40:00;100328.21;;;14.62;73.10
62926;BME280;55732;52.248;-0.844;2023-07-22T02:42:25;100330.02;;;14.60;73.08
62926;BME280;55732;52.248;-0.844;2023-07-22T02:44:50;100325.79;;;14.59;73.15
62926;BME280;55732;52.248;-0.844;2023-07-22T02:47:17;100325.09;;;14.58;73.40
62926;BME280;55732;52.248;-0.844;2023-07-22T02:49:43;100327.77;;;14.57;73.34
62926;BME280;55732;52.248;-0.844;2023-07-22T02:52:08;100321.02;;;14.58;73.48
62926;BME280;55732;52.248;-0.844;2023-07-22T02:54:40;100319.64;;;14.56;73.50
62926;BME280;55732;52.248;-0.844;2023-07-22T02:57:06;100324.09;;;14.55;73.57
62926;BME280;55732;52.248;-0.844;2023-07-22T02:59:32;100321.63;;;14.54;73.71
62926;BME280;55732;52.248;-0.844;2023-07-22T03:01:58;100319.87;;;14.53;73.74
62926;BME280;55732;52.248;-0.844;2023-07-22T03:04:24;100321.10;;;14.54;73.82
62926;BME280;55732;52.248;-0.844;2023-07-22T03:06:49;100318.09;;;14.54;73.70
62926;BME280;55732;52.248;-0.844;2023-07-22T03:09:15;100315.80;;;14.53;73.88
62926;BME280;55732;52.248;-0.844;2023-07-22T03:11:40;100309.67;;;14.51;73.75
62926;BME280;55732;52.248;-0.844;2023-07-22T03:14:05;100308.30;;;14.49;73.89
62926;BME280;55732;52.248;-0.844;2023-07-22T03:16:31;100307.98;;;14.47;74.13
62926;BME280;55732;52.248;-0.844;2023-07-22T03:18:57;100304.98;;;14.45;74.31
62926;BME280;55732;52.248;-0.844;2023-07-22T03:21:22;100301.96;;;14.46;74.40
62926;BME280;55732;52.248;-0.844;2023-07-22T03:23:48;100296.31;;;14.45;74.27
62926;BME280;55732;52.248;-0.844;2023-07-22T03:26:14;100294.90;;;14.45;74.41
62926;BME280;55732;52.248;-0.844;2023-07-22T03:28:39;100295.41;;;14.46;74.50
62926;BME280;55732;52.248;-0.844;2023-07-22T03:31:07;100300.36;;;14.47;74.38
62926;BME280;55732;52.248;-0.844;2023-07-22T03:33:35;100305.30;;;14.48;74.54
62926;BME280;55732;52.248;-0.844;2023-07-22T03:36:01;100303.89;;;14.47;74.66
62926;BME280;55732;52.248;-0.844;2023-07-22T03:38:26;100301.59;;;14.47;74.76
62926;BME280;55732;52.248;-0.844;2023-07-22T03:40:52;100301.72;;;14.50;74.70
62926;BME280;55732;52.248;-0.844;2023-07-22T03:43:20;100302.58;;;14.51;74.72
62926;BME280;55732;52.248;-0.844;2023-07-22T03:45:46;100303.12;;;14.51;74.64
62926;BME280;55732;52.248;-0.844;2023-07-22T03:48:11;100302.22;;;14.51;74.93
62926;BME280;55732;52.248;-0.844;2023-07-22T03:50:36;100296.75;;;14.50;74.87
62926;BME280;55732;52.248;-0.844;2023-07-22T03:53:02;100289.38;;;14.46;75.02
62926;BME280;55732;52.248;-0.844;2023-07-22T03:55:27;100289.06;;;14.44;74.96
62926;BME280;55732;52.248;-0.844;2023-07-22T03:57:53;100285.57;;;14.41;75.07
62926;BME280;55732;52.248;-0.844;2023-07-22T04:00:20;100287.42;;;14.38;75.14
62926;BME280;55732;52.248;-0.844;2023-07-22T04:02:46;100285.02;;;14.33;75.27
62926;BME280;55732;52.248;-0.844;2023-07-22T04:05:11;100284.19;;;14.30;75.51
62926;BME280;55732;52.248;-0.844;2023-07-22T04:07:37;100284.98;;;14.27;75.58
62926;BME280;55732;52.248;-0.844;2023-07-22T04:10:03;100281.98;;;14.26;75.89
62926;BME280;55732;52.248;-0.844;2023-07-22T04:12:28;100279.89;;;14.25;75.91
62926;BME280;55732;52.248;-0.844;2023-07-22T04:14:54;100281.66;;;14.25;75.86
62926;BME280;55732;52.248;-0.844;2023-07-22T04:17:19;100279.19;;;14.25;75.92
62926;BME280;55732;52.248;-0.844;2023-07-22T04:19:45;100277.46;;;14.22;76.13
62926;BME280;55732;52.248;-0.844;2023-07-22T04:22:11;100273.27;;;14.20;76.26
62926;BME280;55732;52.248;-0.844;2023-07-22T04:24:37;100273.29;;;14.18;76.37
62926;BME280;55732;52.248;-0.844;2023-07-22T04:27:03;100271.20;;;14.17;76.47
62926;BME280;55732;52.248;-0.844;2023-07-22T04:29:28;100267.02;;;14.14;76.73
62926;BME280;55732;52.248;-0.844;2023-07-22T04:31:58;100264.56;;;14.13;76.77
62926;BME280;55732;52.248;-0.844;2023-07-22T04:34:27;100264.77;;;14.12;76.86
62926;BME280;55732;52.248;-0.844;2023-07-22T04:36:53;100263.38;;;14.11;77.00
62926;BME280;55732;52.248;-0.844;2023-07-22T04:39:19;100262.11;;;14.12;77.21
62926;BME280;55732;52.248;-0.844;2023-07-22T04:41:44;100259.77;;;14.14;77.32
62926;BME280;55732;52.248;-0.844;2023-07-22T04:44:10;100259.18;;;14.16;77.44
62926;BME280;55732;52.248;-0.844;2023-07-22T04:46:35;100256.45;;;14.19;77.37
62926;BME280;55732;52.248;-0.844;2023-07-22T04:49:01;100260.30;;;14.21;77.53
62926;BME280;55732;52.248;-0.844;2023-07-22T04:51:26;100265.41;;;14.23;77.39
62926;BME280;55732;52.248;-0.844;2023-07-22T04:53:52;100262.54;;;14.25;77.50
62926;BME280;55732;52.248;-0.844;2023-07-22T04:56:17;100262.45;;;14.28;77.58
62926;BME280;55732;52.248;-0.844;2023-07-22T04:58:43;100258.35;;;14.29;77.51
62926;BME280;55732;52.248;-0.844;2023-07-22T05:01:09;100249.98;;;14.31;77.58
62926;BME280;55732;52.248;-0.844;2023-07-22T05:03:34;100252.45;;;14.32;77.68
62926;BME280;55732;52.248;-0.844;2023-07-22T05:06:00;100246.20;;;14.35;77.75
62926;BME280;55732;52.248;-0.844;2023-07-22T05:08:26;100239.77;;;14.38;77.95
62926;BME280;55732;52.248;-0.844;2023-07-22T05:10:52;100231.36;;;14.42;77.97
62926;BME280;55732;52.248;-0.844;2023-07-22T05:13:18;100239.11;;;14.44;78.01
62926;BME280;55732;52.248;-0.844;2023-07-22T05:15:44;100241.52;;;14.48;78.22
62926;BME280;55732;52.248;-0.844;2023-07-22T05:18:10;100240.78;;;14.49;78.49
62926;BME280;55732;52.248;-0.844;2023-07-22T05:20:35;100239.02;;;14.49;78.37
62926;BME280;55732;52.248;-0.844;2023-07-22T05:23:02;100238.33;;;14.48;78.63
62926;BME280;55732;52.248;-0.844;2023-07-22T05:25:28;100228.80;;;14.46;78.93
62926;BME280;55732;52.248;-0.844;2023-07-22T05:27:53;100226.53;;;14.44;79.22
62926;BME280;55732;52.248;-0.844;2023-07-22T05:30:19;100223.88;;;14.44;79.27
62926;BME280;55732;52.248;-0.844;2023-07-22T05:32:44;100218.58;;;14.43;79.57
62926;BME280;55732;52.248;-0.844;2023-07-22T05:35:09;100226.03;;;14.43;79.59
62926;BME280;55732;52.248;-0.844;2023-07-22T05:37:35;100224.67;;;14.40;79.87
62926;BME280;55732;52.248;-0.844;2023-07-22T05:40:00;100225.42;;;14.39;80.05
62926;BME280;55732;52.248;-0.844;2023-07-22T05:42:27;100227.39;;;14.37;80.42
62926;BME280;55732;52.248;-0.844;2023-07-22T05:44:57;100228.30;;;14.35;80.65
62926;BME280;55732;52.248;-0.844;2023-07-22T05:47:23;100226.90;;;14.34;80.90
62926;BME280;55732;52.248;-0.844;2023-07-22T05:49:49;100221.79;;;14.33;80.71
62926;BME280;55732;52.248;-0.844;2023-07-22T05:52:14;100214.34;;;14.34;80.91
62926;BME280;55732;52.248;-0.844;2023-07-22T05:54:40;100207.58;;;14.36;81.16
62926;BME280;55732;52.248;-0.844;2023-07-22T05:57:06;100208.77;;;14.37;81.14
62926;BME280;55732;52.248;-0.844;2023-07-22T05:59:31;100210.50;;;14.39;81.30
62926;BME280;55732;52.248;-0.844;2023-07-22T06:01:57;100210.66;;;14.41;81.38
62926;BME280;55732;52.248;-0.844;2023-07-22T06:04:22;100206.00;;;14.43;81.54
62926;BME280;55732;52.248;-0.844;2023-07-22T06:06:48;100207.01;;;14.46;81.65
62926;BME280;55732;52.248;-0.844;2023-07-22T06:09:13;100206.54;;;14.51;81.80
62926;BME280;55732;52.248;-0.844;2023-07-22T06:11:39;100202.58;;;14.53;81.43
62926;BME280;55732;52.248;-0.844;2023-07-22T06:14:05;100200.17;;;14.58;81.79
62926;BME280;55732;52.248;-0.844;2023-07-22T06:16:30;100194.93;;;14.62;81.70
62926;BME280;55732;52.248;-0.844;2023-07-22T06:18:56;100197.16;;;14.65;81.58
62926;BME280;55732;52.248;-0.844;2023-07-22T06:21:21;100199.64;;;14.65;81.36
62926;BME280;55732;52.248;-0.844;2023-07-22T06:23:47;100199.31;;;14.64;81.52
62926;BME280;55732;52.248;-0.844;2023-07-22T06:26:12;100192.77;;;14.63;81.57
62926;BME280;55732;52.248;-0.844;2023-07-22T06:28:37;100190.31;;;14.63;81.70
62926;BME280;55732;52.248;-0.844;2023-07-22T06:31:03;100190.80;;;14.63;81.85
62926;BME280;55732;52.248;-0.844;2023-07-22T06:33:28;100191.86;;;14.64;81.94
62926;BME280;55732;52.248;-0.844;2023-07-22T06:35:53;100195.09;;;14.63;81.94
62926;BME280;55732;52.248;-0.844;2023-07-22T06:38:19;100193.01;;;14.62;81.79
62926;BME280;55732;52.248;-0.844;2023-07-22T06:40:44;100188.39;;;14.62;81.89
62926;BME280;55732;52.248;-0.844;2023-07-22T06:43:10;100196.21;;;14.61;82.03
62926;BME280;55732;52.248;-0.844;2023-07-22T06:45:35;100196.41;;;14.60;82.02
62926;BME280;55732;52.248;-0.844;2023-07-22T06:48:02;100196.08;;;14.59;81.83
62926;BME280;55732;52.248;-0.844;2023-07-22T06:50:28;100197.48;;;14.60;82.07
62926;BME280;55732;52.248;-0.844;2023-07-22T06:52:53;100196.90;;;14.62;82.26
62926;BME280;55732;52.248;-0.844;2023-07-22T06:55:19;100195.39;;;14.64;81.97
62926;BME280;55732;52.248;-0.844;2023-07-22T06:57:48;100195.88;;;14.66;82.18
62926;BME280;55732;52.248;-0.844;2023-07-22T07:00:13;100196.02;;;14.68;82.16
62926;BME280;55732;52.248;-0.844;2023-07-22T07:02:39;100197.08;;;14.69;81.97
62926;BME280;55732;52.248;-0.844;2023-07-22T07:05:05;100190.85;;;14.70;82.03
62926;BME280;55732;52.248;-0.844;2023-07-22T07:07:32;100192.05;;;14.72;82.09
62926;BME280;55732;52.248;-0.844;2023-07-22T07:09:58;100195.73;;;14.73;82.03
62926;BME280;55732;52.248;-0.844;2023-07-22T07:12:23;100192.16;;;14.75;82.17
62926;BME280;55732;52.248;-0.844;2023-07-22T07:14:53;100189.05;;;14.78;82.29
62926;BME280;55732;52.248;-0.844;2023-07-22T07:17:18;100190.94;;;14.80;82.00
62926;BME280;55732;52.248;-0.844;2023-07-22T07:19:44;100188.95;;;14.82;81.99
62926;BME280;55732;52.248;-0.844;2023-07-22T07:22:09;100181.82;;;14.84;82.16
62926;BME280;55732;52.248;-0.844;2023-07-22T07:24:35;100175.23;;;14.86;82.40
62926;BME280;55732;52.248;-0.844;2023-07-22T07:27:00;100178.56;;;14.87;82.46
62926;BME280;55732;52.248;-0.844;2023-07-22T07:29:25;100178.02;;;14.87;82.36
62926;BME280;55732;52.248;-0.844;2023-07-22T07:31:51;100175.22;;;14.86;82.14
62926;BME280;55732;52.248;-0.844;2023-07-22T07:34:16;100175.63;;;14.84;82.05
62926;BME280;55732;52.248;-0.844;2023-07-22T07:36:42;100172.27;;;14.83;82.10
62926;BME280;55732;52.248;-0.844;2023-07-22T07:39:07;100169.06;;;14.84;82.30
62926;BME280;55732;52.248;-0.844;2023-07-22T07:41:33;100171.08;;;14.88;82.23
62926;BME280;55732;52.248;-0.844;2023-07-22T07:43:58;100168.48;;;14.92;82.30
62926;BME280;55732;52.248;-0.844;2023-07-22T07:46:27;100163.92;;;14.98;82.21
62926;BME280;55732;52.248;-0.844;2023-07-22T07:48:57;100161.83;;;15.03;82.27
62926;BME280;55732;52.248;-0.844;2023-07-22T07:51:25;100159.02;;;15.08;82.39
62926;BME280;55732;52.248;-0.844;2023-07-22T07:53:52;100162.20;;;15.15;82.16
62926;BME280;55732;52.248;-0.844;2023-07-22T07:56:19;100158.34;;;15.21;82.21
62926;BME280;55732;52.248;-0.844;2023-07-22T07:58:47;100154.05;;;15.28;82.16
62926;BME280;55732;52.248;-0.844;2023-07-22T08:01:13;100153.44;;;15.38;82.35
62926;BME280;55732;52.248;-0.844;2023-07-22T08:03:40;100149.92;;;15.49;81.95
62926;BME280;55732;52.248;-0.844;2023-07-22T08:06:07;100148.41;;;15.59;81.52
62926;BME280;55732;52.248;-0.844;2023-07-22T08:08:34;100151.06;;;15.67;81.48
62926;BME280;55732;52.248;-0.844;2023-07-22T08:11:10;100150.33;;;15.73;81.39
62926;BME280;55732;52.248;-0.844;2023-07-22T08:13:36;100150.63;;;15.81;81.28
62926;BME280;55732;52.248;-0.844;2023-07-22T08:16:04;100147.85;;;15.85;81.03
62926;BME280;55732;52.248;-0.844;2023-07-22T08:18:31;100149.11;;;15.90;80.76
62926;BME280;55732;52.248;-0.844;2023-07-22T08:20:57;100155.13;;;15.96;80.96
62926;BME280;55732;52.248;-0.844;2023-07-22T08:23:22;100150.23;;;16.00;80.91
62926;BME280;55732;52.248;-0.844;2023-07-22T08:25:48;100142.99;;;15.99;80.76
62926;BME280;55732;52.248;-0.844;2023-07-22T08:28:14;100148.64;;;16.05;80.88
62926;BME280;55732;52.248;-0.844;2023-07-22T08:30:40;100147.98;;;16.05;80.61
62926;BME280;55732;52.248;-0.844;2023-07-22T08:33:06;100146.14;;;16.06;80.71
62926;BME280;55732;52.248;-0.844;2023-07-22T08:35:35;100139.17;;;16.07;80.87
62926;BME280;55732;52.248;-0.844;2023-07-22T08:38:02;100142.89;;;16.19;80.99
62926;BME280;55732;52.248;-0.844;2023-07-22T08:40:36;100141.42;;;16.27;80.86
62926;BME280;55732;52.248;-0.844;2023-07-22T08:43:03;100138.11;;;16.30;80.28
62926;BME280;55732;52.248;-0.844;2023-07-22T08:45:30;100136.84;;;16.30;79.99
62926;BME280;55732;52.248;-0.844;2023-07-22T08:47:58;100137.17;;;16.31;79.57
62926;BME280;55732;52.248;-0.844;2023-07-22T08:50:30;100135.92;;;16.31;79.58
62926;BME280;55732;52.248;-0.844;2023-07-22T08:52:58;100132.36;;;16.32;79.58
62926;BME280;55732;52.248;-0.844;2023-07-22T08:55:25;100133.80;;;16.31;79.48
62926;BME280;55732;52.248;-0.844;2023-07-22T08:57:51;100129.45;;;16.28;79.16
62926;BME280;55732;52.248;-0.844;2023-07-22T09:00:17;100127.76;;;16.26;79.25
62926;BME280;55732;52.248;-0.844;2023-07-22T09:02:44;100124.23;;;16.25;79.14
62926;BME280;55732;52.248;-0.844;2023-07-22T09:05:10;100122.63;;;16.25;79.16
62926;BME280;55732;52.248;-0.844;2023-07-22T09:07:37;100120.11;;;16.26;79.18
62926;BME280;55732;52.248;-0.844;2023-07-22T09:10:07;100113.91;;;16.25;79.06
62926;BME280;55732;52.248;-0.844;2023-07-22T09:12:34;100119.07;;;16.25;79.51
62926;BME280;55732;52.248;-0.844;2023-07-22T09:15:09;100119.98;;;16.25;79.61
62926;BME280;55732;52.248;-0.844;2023-07-22T09:17:37;100116.29;;;16.23;79.39
62926;BME280;55732;52.248;-0.844;2023-07-22T09:20:03;100117.88;;;16.24;79.44
62926;BME280;55732;52.248;-0.844;2023-07-22T09:22:29;100117.91;;;16.28;79.39
62926;BME280;55732;52.248;-0.844;2023-07-22T09:25:16;100120.30;;;16.31;79.26
62926;BME280;55732;52.248;-0.844;2023-07-22T09:27:42;100119.24;;;16.37;79.55
62926;BME280;55732;52.248;-0.844;2023-07-22T09:30:32;100119.41;;;16.42;79.51
62926;BME280;55732;52.248;-0.844;2023-07-22T09:33:06;100119.61;;;16.47;79.58
62926;BME280;55732;52.248;-0.844;2023-07-22T09:35:46;100120.77;;;16.50;79.21
62926;BME280;55732;52.248;-0.844;2023-07-22T09:38:12;100115.69;;;16.48;79.00
62926;BME280;55732;52.248;-0.844;2023-07-22T09:40:40;100109.73;;;16.50;78.79
62926;BME280;55732;52.248;-0.844;2023-07-22T09:43:06;100118.80;;;16.55;79.18
62926;BME280;55732;52.248;-0.844;2023-07-22T09:45:31;100118.54;;;16.58;79.68
62926;BME280;55732;52.248;-0.844;2023-07-22T09:47:58;100116.89;;;16.59;79.51
62926;BME280;55732;52.248;-0.844;2023-07-22T09:50:25;100115.98;;;16.60;79.35
62926;BME280;55732;52.248;-0.844;2023-07-22T09:52:53;100113.92;;;16.57;79.10
62926;BME280;55732;52.248;-0.844;2023-07-22T09:55:21;100115.00;;;16.57;79.51
62926;BME280;55732;52.248;-0.844;2023-07-22T09:57:51;100109.91;;;16.55;79.25
62926;BME280;55732;52.248;-0.844;2023-07-22T10:00:17;100107.75;;;16.56;79.31
62926;BME280;55732;52.248;-0.844;2023-07-22T10:02:47;100106.36;;;16.55;79.08
62926;BME280;55732;52.248;-0.844;2023-07-22T10:05:16;100102.92;;;16.57;79.27
62926;BME280;55732;52.248;-0.844;2023-07-22T10:07:47;100097.62;;;16.62;79.71
62926;BME280;55732;52.248;-0.844;2023-07-22T10:10:19;100095.31;;;16.68;79.45
62926;BME280;55732;52.248;-0.844;2023-07-22T10:12:45;100093.59;;;16.71;79.17
62926;BME280;55732;52.248;-0.844;2023-07-22T10:15:14;100093.92;;;16.77;79.53
62926;BME280;55732;52.248;-0.844;2023-07-22T10:17:40;100095.00;;;16.82;79.28
62926;BME280;55732;52.248;-0.844;2023-07-22T10:20:08;100092.41;;;16.79;78.80
62926;BME280;55732;52.248;-0.844;2023-07-22T10:22:35;100088.70;;;16.78;79.08
62926;BME280;55732;52.248;-0.844;2023-07-22T10:25:04;100088.02;;;16.83;79.24
62926;BME280;55732;52.248;-0.844;2023-07-22T10:27:31;100084.25;;;16.89;79.28
62926;BME280;55732;52.248;-0.844;2023-07-22T10:29:56;100073.10;;;16.88;78.96
62926;BME280;55732;52.248;-0.844;2023-07-22T10:32:22;100084.20;;;16.90;78.85
62926;BME280;55732;52.248;-0.844;2023-07-22T10:34:47;100080.33;;;16.89;78.94
62926;BME280;55732;52.248;-0.844;2023-07-22T10:37:13;100078.29;;;16.91;79.42
62926;BME280;55732;52.248;-0.844;2023-07-22T10:39:38;100074.97;;;16.95;79.35
62926;BME280;55732;52.248;-0.844;2023-07-22T10:42:04;100073.91;;;16.95;79.09
62926;BME280;55732;52.248;-0.844;2023-07-22T10:44:36;100072.48;;;16.95;79.36
62926;BME280;55732;52.248;-0.844;2023-07-22T10:47:01;100071.23;;;17.00;80.04
62926;BME280;55732;52.248;-0.844;2023-07-22T10:49:43;100067.24;;;17.07;79.75
62926;BME280;55732;52.248;-0.844;2023-07-22T10:52:11;100064.54;;;17.08;79.21
62926;BME280;55732;52.248;-0.844;2023-07-22T10:54:38;100068.12;;;17.08;79.56
62926;BME280;55732;52.248;-0.844;2023-07-22T10:57:24;100062.58;;;17.08;79.46
62926;BME280;55732;52.248;-0.844;2023-07-22T10:59:52;100060.41;;;17.09;79.23
62926;BME280;55732;52.248;-0.844;2023-07-22T11:02:25;100060.04;;;17.14;79.38
62926;BME280;55732;52.248;-0.844;2023-07-22T11:04:50;100059.30;;;17.20;79.34
62926;BME280;55732;52.248;-0.844;2023-07-22T11:07:30;100053.53;;;17.22;79.58
62926;BME280;55732;52.248;-0.844;2023-07-22T11:09:56;100051.64;;;17.24;79.25
62926;BME280;55732;52.248;-0.844;2023-07-22T11:12:21;100049.55;;;17.19;79.14
62926;BME280;55732;52.248;-0.844;2023-07-22T11:14:51;100044.15;;;17.12;79.74
62926;BME280;55732;52.248;-0.844;2023-07-22T11:17:21;100040.59;;;17.02;79.87
62926;BME280;55732;52.248;-0.844;2023-07-22T11:19:53;100037.58;;;16.91;80.32
62926;BME280;55732;52.248;-0.844;2023-07-22T11:22:19;100034.71;;;16.82;80.50
62926;BME280;55732;52.248;-0.844;2023-07-22T11:24:45;100028.65;;;16.73;80.47
62926;BME280;55732;52.248;-0.844;2023-07-22T11:27:11;100028.82;;;16.68;80.69
62926;BME280;55732;52.248;-0.844;2023-07-22T11:29:37;100029.39;;;16.67;80.65
62926;BME280;55732;52.248;-0.844;2023-07-22T11:32:03;100029.28;;;16.75;80.84
62926;BME280;55732;52.248;-0.844;2023-07-22T11:34:28;100029.93;;;16.82;80.26
62926;BME280;55732;52.248;-0.844;2023-07-22T11:36:55;100026.58;;;16.90;80.07
62926;BME280;55732;52.248;-0.844;2023-07-22T11:39:23;100020.08;;;16.98;80.15
62926;BME280;55732;52.248;-0.844;2023-07-22T11:41:49;100016.30;;;17.04;79.77
62926;BME280;55732;52.248;-0.844;2023-07-22T11:44:18;100011.96;;;17.11;79.87
62926;BME280;55732;52.248;-0.844;2023-07-22T11:49:12;100003.19;;;17.12;79.39
62926;BME280;55732;52.248;-0.844;2023-07-22T11:51:42;100006.16;;;17.13;78.78
62926;BME280;55732;52.248;-0.844;2023-07-22T11:54:07;100003.11;;;17.09;78.91
62926;BME280;55732;52.248;-0.844;2023-07-22T11:56:33;99995.46;;;17.05;78.94
62926;BME280;55732;52.248;-0.844;2023-07-22T11:58:58;99994.05;;;17.00;78.84
62926;BME280;55732;52.248;-0.844;2023-07-22T12:01:23;99992.52;;;16.93;78.98
62926;BME280;55732;52.248;-0.844;2023-07-22T12:03:50;99991.42;;;16.89;78.78
62926;BME280;55732;52.248;-0.844;2023-07-22T12:06:20;99988.96;;;16.84;78.84
62926;BME280;55732;52.248;-0.844;2023-07-22T12:08:51;99984.15;;;16.79;79.13
62926;BME280;55732;52.248;-0.844;2023-07-22T12:11:23;99984.23;;;16.76;79.45
62926;BME280;55732;52.248;-0.844;2023-07-22T12:14:13;99977.45;;;16.73;79.30
62926;BME280;55732;52.248;-0.844;2023-07-22T12:16:40;99977.41;;;16.69;79.54
62926;BME280;55732;52.248;-0.844;2023-07-22T12:19:09;99979.73;;;16.63;80.12
62926;BME280;55732;52.248;-0.844;2023-07-22T12:21:35;99973.33;;;16.57;80.07
62926;BME280;55732;52.248;-0.844;2023-07-22T12:24:00;99969.05;;;16.48;80.37
62926;BME280;55732;52.248;-0.844;2023-07-22T12:26:26;99970.92;;;16.45;80.61
62926;BME280;55732;52.248;-0.844;2023-07-22T12:28:51;99966.39;;;16.38;80.58
62926;BME280;55732;52.248;-0.844;2023-07-22T12:31:17;99961.40;;;16.33;81.07
62926;BME280;55732;52.248;-0.844;2023-07-22T12:33:43;99961.24;;;16.28;81.47
62926;BME280;55732;52.248;-0.844;2023-07-22T12:36:08;99959.29;;;16.22;81.58
62926;BME280;55732;52.248;-0.844;2023-07-22T12:38:34;99957.03;;;16.16;81.82
62926;BME280;55732;52.248;-0.844;2023-07-22T12:41:00;99959.27;;;16.12;81.97